sensor_id;sensor_type;location;lat;lon;timestamp;temperature;humidity
12481;DHT22;6305;48.398;11.762;2023-06-22T00:01:23;17.80;99.90
12481;DHT22;6305;48.398;11.762;2023-06-22T00:03:50;17.70;99.90
12481;DHT22;6305;48.398;11.762;2023-06-22T00:06:17;17.70;99.90
12481;DHT22;6305;48.398;11.762;2023-06-22T00:08:44;17.70;99.90
12481;DHT22;6305;48.398;11.762;2023-06-22T00:11:11;17.70;99.90
12481;DHT22;6305;48.398;11.762;2023-06-22T00:13:39;17.60;99.90
12481;DHT22;6305;48.398;11.762;2023-06-22T00:16:07;17.60;99.90
12481;DHT22;6305;48.398;11.762;2023-06-22T00:18:34;17.60;99.90
12481;DHT22;6305;48.398;11.762;2023-06-22T00:21:01;17.60;99.90
12481;DHT22;6305;48.398;11.762;2023-06-22T00:23:28;17.50;99.90
12481;DHT22;6305;48.398;11.762;2023-06-22T00:25:59;17.50;99.90
12481;DHT22;6305;48.398;11.762;2023-06-22T00:28:27;17.50;99.90
12481;DHT22;6305;48.398;11.762;2023-06-22T00:30:54;17.50;99.90
12481;DHT22;6305;48.398;11.762;2023-06-22T00:33:22;17.40;99.90
12481;DHT22;6305;48.398;11.762;2023-06-22T00:35:49;17.40;99.90
12481;DHT22;6305;48.398;11.762;2023-06-22T00:38:18;17.40;99.90
12481;DHT22;6305;48.398;11.762;2023-06-22T00:40:45;17.40;99.90
12481;DHT22;6305;48.398;11.762;2023-06-22T00:43:14;17.40;99.90
12481;DHT22;6305;48.398;11.762;2023-06-22T00:45:41;17.40;99.90
12481;DHT22;6305;48.398;11.762;2023-06-22T00:48:09;17.40;99.90
12481;DHT22;6305;48.398;11.762;2023-06-22T00:50:39;17.40;99.90
12481;DHT22;6305;48.398;11.762;2023-06-22T00:53:07;17.40;99.90
12481;DHT22;6305;48.398;11.762;2023-06-22T00:55:35;17.30;99.90
12481;DHT22;6305;48.398;11.762;2023-06-22T00:58:06;17.30;99.90
12481;DHT22;6305;48.398;11.762;2023-06-22T01:00:36;17.30;99.90
12481;DHT22;6305;48.398;11.762;2023-06-22T01:03:04;17.30;99.90
12481;DHT22;6305;48.398;11.762;2023-06-22T01:05:34;17.30;99.90
12481;DHT22;6305;48.398;11.762;2023-06-22T01:08:12;17.30;99.90
12481;DHT22;6305;48.398;11.762;2023-06-22T01:10:46;17.30;99.90
12481;DHT22;6305;48.398;11.762;2023-06-22T01:13:21;17.30;99.90
12481;DHT22;6305;48.398;11.762;2023-06-22T01:15:55;17.30;99.90
12481;DHT22;6305;48.398;11.762;2023-06-22T01:18:24;17.20;99.90
12481;DHT22;6305;48.398;11.762;2023-06-22T01:20:53;17.20;99.90
12481;DHT22;6305;48.398;11.762;2023-06-22T01:23:29;17.20;99.90
12481;DHT22;6305;48.398;11.762;2023-06-22T01:26:04;17.20;99.90
12481;DHT22;6305;48.398;11.762;2023-06-22T01:28:43;17.10;99.90
12481;DHT22;6305;48.398;11.762;2023-06-22T01:31:14;17.10;99.90
12481;DHT22;6305;48.398;11.762;2023-06-22T01:33:50;17.10;99.90
12481;DHT22;6305;48.398;11.762;2023-06-22T01:36:18;17.10;99.90
12481;DHT22;6305;48.398;11.762;2023-06-22T01:38:47;17.00;99.90
12481;DHT22;6305;48.398;11.762;2023-06-22T01:41:14;17.00;99.90
12481;DHT22;6305;48.398;11.762;2023-06-22T01:43:43;17.00;99.90
12481;DHT22;6305;48.398;11.762;2023-06-22T01:46:11;17.00;99.90
12481;DHT22;6305;48.398;11.762;2023-06-22T01:48:39;16.90;99.90
12481;DHT22;6305;48.398;11.762;2023-06-22T01:51:07;17.00;99.90
12481;DHT22;6305;48.398;11.762;2023-06-22T01:53:34;16.90;99.90
12481;DHT22;6305;48.398;11.762;2023-06-22T01:56:01;16.90;99.90
12481;DHT22;6305;48.398;11.762;2023-06-22T01:58:30;16.90;99.90
12481;DHT22;6305;48.398;11.762;2023-06-22T02:01:03;16.90;99.90
12481;DHT22;6305;48.398;11.762;2023-06-22T02:03:37;16.80;99.90
12481;DHT22;6305;48.398;11.762;2023-06-22T02:06:07;16.80;99.90
12481;DHT22;6305;48.398;11.762;2023-06-22T02:08:41;16.70;99.90
12481;DHT22;6305;48.398;11.762;2023-06-22T02:11:13;16.70;99.90
12481;DHT22;6305;48.398;11.762;2023-06-22T02:13:42;16.70;99.90
12481;DHT22;6305;48.398;11.762;2023-06-22T02:16:12;16.70;99.90
12481;DHT22;6305;48.398;11.762;2023-06-22T02:18:46;16.70;99.90
12481;DHT22;6305;48.398;11.762;2023-06-22T02:21:13;16.70;99.90
12481;DHT22;6305;48.398;11.762;2023-06-22T02:23:41;16.70;99.90
12481;DHT22;6305;48.398;11.762;2023-06-22T02:26:08;16.70;99.90
12481;DHT22;6305;48.398;11.762;2023-06-22T02:28:35;16.70;99.90
12481;DHT22;6305;48.398;11.762;2023-06-22T02:31:02;16.70;99.90
12481;DHT22;6305;48.398;11.762;2023-06-22T02:33:30;16.70;99.90
12481;DHT22;6305;48.398;11.762;2023-06-22T02:35:57;16.80;99.90
12481;DHT22;6305;48.398;11.762;2023-06-22T02:38:24;16.80;99.90
12481;DHT22;6305;48.398;11.762;2023-06-22T02:40:52;16.80;99.90
12481;DHT22;6305;48.398;11.762;2023-06-22T02:43:19;16.80;99.90
12481;DHT22;6305;48.398;11.762;2023-06-22T02:45:46;16.80;99.90
12481;DHT22;6305;48.398;11.762;2023-06-22T02:48:14;16.80;99.90
12481;DHT22;6305;48.398;11.762;2023-06-22T02:50:42;16.80;99.90
12481;DHT22;6305;48.398;11.762;2023-06-22T02:53:09;16.80;99.90
12481;DHT22;6305;48.398;11.762;2023-06-22T02:55:39;16.80;99.90
12481;DHT22;6305;48.398;11.762;2023-06-22T02:58:06;16.80;99.90
12481;DHT22;6305;48.398;11.762;2023-06-22T03:00:37;16.80;99.90
12481;DHT22;6305;48.398;11.762;2023-06-22T03:03:05;16.80;99.90
12481;DHT22;6305;48.398;11.762;2023-06-22T03:05:32;16.80;99.90
12481;DHT22;6305;48.398;11.762;2023-06-22T03:08:02;16.70;99.90
12481;DHT22;6305;48.398;11.762;2023-06-22T03:10:32;16.70;99.90
12481;DHT22;6305;48.398;11.762;2023-06-22T03:12:59;16.70;99.90
12481;DHT22;6305;48.398;11.762;2023-06-22T03:15:26;16.70;99.90
12481;DHT22;6305;48.398;11.762;2023-06-22T03:17:55;16.70;99.90
12481;DHT22;6305;48.398;11.762;2023-06-22T03:20:23;16.80;99.90
12481;DHT22;6305;48.398;11.762;2023-06-22T03:22:52;16.80;99.90
12481;DHT22;6305;48.398;11.762;2023-06-22T03:25:20;16.70;99.90
12481;DHT22;6305;48.398;11.762;2023-06-22T03:27:49;16.80;99.90
12481;DHT22;6305;48.398;11.762;2023-06-22T03:30:16;16.80;99.90
12481;DHT22;6305;48.398;11.762;2023-06-22T03:32:45;16.80;99.90
12481;DHT22;6305;48.398;11.762;2023-06-22T03:35:12;16.90;99.90
12481;DHT22;6305;48.398;11.762;2023-06-22T03:37:40;16.80;99.90
12481;DHT22;6305;48.398;11.762;2023-06-22T03:40:08;16.90;99.90
12481;DHT22;6305;48.398;11.762;2023-06-22T03:42:37;17.00;99.90
12481;DHT22;6305;48.398;11.762;2023-06-22T03:45:05;17.00;99.90
12481;DHT22;6305;48.398;11.762;2023-06-22T03:47:33;17.10;99.90
12481;DHT22;6305;48.398;11.762;2023-06-22T03:50:00;17.10;99.90
12481;DHT22;6305;48.398;11.762;2023-06-22T03:52:29;17.20;99.90
12481;DHT22;6305;48.398;11.762;2023-06-22T03:54:57;17.20;99.90
12481;DHT22;6305;48.398;11.762;2023-06-22T03:57:24;17.40;99.90
12481;DHT22;6305;48.398;11.762;2023-06-22T03:59:56;17.40;99.90
12481;DHT22;6305;48.398;11.762;2023-06-22T04:02:23;17.50;99.90
12481;DHT22;6305;48.398;11.762;2023-06-22T04:04:50;17.60;99.90
12481;DHT22;6305;48.398;11.762;2023-06-22T04:07:17;17.70;99.90
12481;DHT22;6305;48.398;11.762;2023-06-22T04:09:44;17.80;99.90
12481;DHT22;6305;48.398;11.762;2023-06-22T04:12:11;17.90;99.90
12481;DHT22;6305;48.398;11.762;2023-06-22T04:14:38;18.00;99.90
12481;DHT22;6305;48.398;11.762;2023-06-22T04:17:06;18.10;99.90
12481;DHT22;6305;48.398;11.762;2023-06-22T04:19:33;18.20;99.90
12481;DHT22;6305;48.398;11.762;2023-06-22T04:22:00;18.40;99.90
12481;DHT22;6305;48.398;11.762;2023-06-22T04:24:27;18.50;99.90
12481;DHT22;6305;48.398;11.762;2023-06-22T04:26:54;18.60;99.90
12481;DHT22;6305;48.398;11.762;2023-06-22T04:29:21;18.80;99.90
12481;DHT22;6305;48.398;11.762;2023-06-22T04:31:54;18.90;99.90
12481;DHT22;6305;48.398;11.762;2023-06-22T04:34:24;19.20;99.90
12481;DHT22;6305;48.398;11.762;2023-06-22T04:36:53;19.40;99.90
12481;DHT22;6305;48.398;11.762;2023-06-22T04:39:20;19.50;99.90
12481;DHT22;6305;48.398;11.762;2023-06-22T04:41:47;19.70;99.90
12481;DHT22;6305;48.398;11.762;2023-06-22T04:44:15;19.90;99.90
12481;DHT22;6305;48.398;11.762;2023-06-22T04:46:51;20.00;99.90
12481;DHT22;6305;48.398;11.762;2023-06-22T04:49:20;20.30;99.90
12481;DHT22;6305;48.398;11.762;2023-06-22T04:51:49;20.50;99.90
12481;DHT22;6305;48.398;11.762;2023-06-22T04:54:17;20.60;99.90
12481;DHT22;6305;48.398;11.762;2023-06-22T04:56:44;20.80;99.90
12481;DHT22;6305;48.398;11.762;2023-06-22T04:59:12;21.00;99.90
12481;DHT22;6305;48.398;11.762;2023-06-22T05:01:39;21.20;99.90
12481;DHT22;6305;48.398;11.762;2023-06-22T05:04:06;21.40;99.90
12481;DHT22;6305;48.398;11.762;2023-06-22T05:06:33;21.60;99.90
12481;DHT22;6305;48.398;11.762;2023-06-22T05:09:01;21.70;99.90
12481;DHT22;6305;48.398;11.762;2023-06-22T05:11:30;21.90;99.90
12481;DHT22;6305;48.398;11.762;2023-06-22T05:13:57;22.00;99.90
12481;DHT22;6305;48.398;11.762;2023-06-22T05:16:24;22.10;99.90
12481;DHT22;6305;48.398;11.762;2023-06-22T05:18:52;22.30;99.90
12481;DHT22;6305;48.398;11.762;2023-06-22T05:21:24;22.40;99.90
12481;DHT22;6305;48.398;11.762;2023-06-22T05:23:51;22.50;99.90
12481;DHT22;6305;48.398;11.762;2023-06-22T05:26:20;22.70;99.90
12481;DHT22;6305;48.398;11.762;2023-06-22T05:28:48;23.00;99.90
12481;DHT22;6305;48.398;11.762;2023-06-22T05:31:16;23.20;99.90
12481;DHT22;6305;48.398;11.762;2023-06-22T05:33:46;23.50;99.90
12481;DHT22;6305;48.398;11.762;2023-06-22T05:36:13;23.70;99.90
12481;DHT22;6305;48.398;11.762;2023-06-22T05:38:41;23.90;99.90
12481;DHT22;6305;48.398;11.762;2023-06-22T05:41:08;24.30;99.90
12481;DHT22;6305;48.398;11.762;2023-06-22T05:43:37;24.70;99.90
12481;DHT22;6305;48.398;11.762;2023-06-22T05:46:04;25.00;99.90
12481;DHT22;6305;48.398;11.762;2023-06-22T05:48:31;25.40;99.90
12481;DHT22;6305;48.398;11.762;2023-06-22T05:50:58;25.80;99.90
12481;DHT22;6305;48.398;11.762;2023-06-22T05:53:26;26.20;99.90
12481;DHT22;6305;48.398;11.762;2023-06-22T05:55:53;26.50;99.90
12481;DHT22;6305;48.398;11.762;2023-06-22T05:58:20;26.70;99.90
12481;DHT22;6305;48.398;11.762;2023-06-22T06:00:49;27.00;99.90
12481;DHT22;6305;48.398;11.762;2023-06-22T06:03:16;27.30;99.90
12481;DHT22;6305;48.398;11.762;2023-06-22T06:05:43;27.40;99.90
12481;DHT22;6305;48.398;11.762;2023-06-22T06:08:11;27.90;99.90
12481;DHT22;6305;48.398;11.762;2023-06-22T06:10:38;28.40;97.60
12481;DHT22;6305;48.398;11.762;2023-06-22T06:13:05;28.60;95.40
12481;DHT22;6305;48.398;11.762;2023-06-22T06:15:33;28.80;94.10
12481;DHT22;6305;48.398;11.762;2023-06-22T06:18:01;29.00;92.30
12481;DHT22;6305;48.398;11.762;2023-06-22T06:20:30;29.70;90.00
12481;DHT22;6305;48.398;11.762;2023-06-22T06:22:58;30.20;83.60
12481;DHT22;6305;48.398;11.762;2023-06-22T06:25:25;30.90;77.40
12481;DHT22;6305;48.398;11.762;2023-06-22T06:27:52;31.60;71.70
12481;DHT22;6305;48.398;11.762;2023-06-22T06:30:20;32.30;66.80
12481;DHT22;6305;48.398;11.762;2023-06-22T06:32:47;33.20;62.90
12481;DHT22;6305;48.398;11.762;2023-06-22T06:35:15;34.00;58.50
12481;DHT22;6305;48.398;11.762;2023-06-22T06:37:43;34.90;55.90
12481;DHT22;6305;48.398;11.762;2023-06-22T06:40:12;35.80;53.10
12481;DHT22;6305;48.398;11.762;2023-06-22T06:42:40;36.30;51.20
12481;DHT22;6305;48.398;11.762;2023-06-22T06:45:11;36.60;49.80
12481;DHT22;6305;48.398;11.762;2023-06-22T06:47:38;37.40;48.60
12481;DHT22;6305;48.398;11.762;2023-06-22T06:50:06;38.00;46.60
12481;DHT22;6305;48.398;11.762;2023-06-22T06:52:35;38.80;45.50
12481;DHT22;6305;48.398;11.762;2023-06-22T06:55:03;39.30;43.70
12481;DHT22;6305;48.398;11.762;2023-06-22T06:57:33;39.70;42.70
12481;DHT22;6305;48.398;11.762;2023-06-22T07:00:03;40.10;42.10
12481;DHT22;6305;48.398;11.762;2023-06-22T07:02:34;40.60;41.50
12481;DHT22;6305;48.398;11.762;2023-06-22T07:05:02;41.10;40.60
12481;DHT22;6305;48.398;11.762;2023-06-22T07:07:29;41.40;39.60
12481;DHT22;6305;48.398;11.762;2023-06-22T07:09:58;41.60;38.90
12481;DHT22;6305;48.398;11.762;2023-06-22T07:12:25;42.00;38.60
12481;DHT22;6305;48.398;11.762;2023-06-22T07:14:52;42.20;37.50
12481;DHT22;6305;48.398;11.762;2023-06-22T07:17:19;42.20;37.50
12481;DHT22;6305;48.398;11.762;2023-06-22T07:19:47;42.50;37.40
12481;DHT22;6305;48.398;11.762;2023-06-22T07:22:14;42.50;37.20
12481;DHT22;6305;48.398;11.762;2023-06-22T07:24:41;42.40;36.80
12481;DHT22;6305;48.398;11.762;2023-06-22T07:27:10;42.60;36.90
12481;DHT22;6305;48.398;11.762;2023-06-22T07:29:38;42.60;36.30
12481;DHT22;6305;48.398;11.762;2023-06-22T07:32:07;43.40;35.60
12481;DHT22;6305;48.398;11.762;2023-06-22T07:34:34;44.10;34.30
12481;DHT22;6305;48.398;11.762;2023-06-22T07:37:01;44.40;33.70
12481;DHT22;6305;48.398;11.762;2023-06-22T07:39:29;44.60;32.70
12481;DHT22;6305;48.398;11.762;2023-06-22T07:41:55;44.70;32.20
12481;DHT22;6305;48.398;11.762;2023-06-22T07:44:24;44.70;32.40
12481;DHT22;6305;48.398;11.762;2023-06-22T07:46:51;44.50;32.00
12481;DHT22;6305;48.398;11.762;2023-06-22T07:49:18;44.50;31.40
12481;DHT22;6305;48.398;11.762;2023-06-22T07:51:45;44.70;31.80
12481;DHT22;6305;48.398;11.762;2023-06-22T07:54:12;44.60;31.80
12481;DHT22;6305;48.398;11.762;2023-06-22T07:56:41;44.80;31.60
12481;DHT22;6305;48.398;11.762;2023-06-22T07:59:08;45.00;31.30
12481;DHT22;6305;48.398;11.762;2023-06-22T08:01:36;45.10;30.90
12481;DHT22;6305;48.398;11.762;2023-06-22T08:04:03;45.20;31.10
12481;DHT22;6305;48.398;11.762;2023-06-22T08:06:31;45.20;30.70
12481;DHT22;6305;48.398;11.762;2023-06-22T08:08:58;45.10;30.40
12481;DHT22;6305;48.398;11.762;2023-06-22T08:11:25;45.20;30.40
12481;DHT22;6305;48.398;11.762;2023-06-22T08:13:52;45.40;30.50
12481;DHT22;6305;48.398;11.762;2023-06-22T08:16:21;45.70;30.60
12481;DHT22;6305;48.398;11.762;2023-06-22T08:18:50;46.20;30.20
12481;DHT22;6305;48.398;11.762;2023-06-22T08:21:16;46.20;29.60
12481;DHT22;6305;48.398;11.762;2023-06-22T08:23:43;46.10;29.80
12481;DHT22;6305;48.398;11.762;2023-06-22T08:26:10;45.60;30.00
12481;DHT22;6305;48.398;11.762;2023-06-22T08:28:37;45.70;30.10
12481;DHT22;6305;48.398;11.762;2023-06-22T08:31:05;45.00;30.10
12481;DHT22;6305;48.398;11.762;2023-06-22T08:33:32;45.00;31.00
12481;DHT22;6305;48.398;11.762;2023-06-22T08:36:00;45.50;30.60
12481;DHT22;6305;48.398;11.762;2023-06-22T08:38:27;45.60;30.40
12481;DHT22;6305;48.398;11.762;2023-06-22T08:40:54;45.70;30.70
12481;DHT22;6305;48.398;11.762;2023-06-22T08:43:21;46.40;30.30
12481;DHT22;6305;48.398;11.762;2023-06-22T08:45:48;46.50;29.60
12481;DHT22;6305;48.398;11.762;2023-06-22T08:48:15;46.50;29.40
12481;DHT22;6305;48.398;11.762;2023-06-22T08:50:42;46.70;29.30
12481;DHT22;6305;48.398;11.762;2023-06-22T08:53:11;45.90;29.90
12481;DHT22;6305;48.398;11.762;2023-06-22T08:55:38;46.00;30.10
12481;DHT22;6305;48.398;11.762;2023-06-22T08:58:05;46.50;29.70
12481;DHT22;6305;48.398;11.762;2023-06-22T09:00:32;46.60;29.30
12481;DHT22;6305;48.398;11.762;2023-06-22T09:03:00;46.40;29.30
12481;DHT22;6305;48.398;11.762;2023-06-22T09:05:28;46.50;29.20
12481;DHT22;6305;48.398;11.762;2023-06-22T09:07:56;46.20;29.30
12481;DHT22;6305;48.398;11.762;2023-06-22T09:10:25;45.90;29.30
12481;DHT22;6305;48.398;11.762;2023-06-22T09:12:52;45.10;29.40
12481;DHT22;6305;48.398;11.762;2023-06-22T09:15:19;44.50;30.00
12481;DHT22;6305;48.398;11.762;2023-06-22T09:17:46;44.60;30.40
12481;DHT22;6305;48.398;11.762;2023-06-22T09:20:13;44.20;30.60
12481;DHT22;6305;48.398;11.762;2023-06-22T09:22:40;43.50;31.40
12481;DHT22;6305;48.398;11.762;2023-06-22T09:25:07;42.80;31.60
12481;DHT22;6305;48.398;11.762;2023-06-22T09:27:36;42.10;32.60
12481;DHT22;6305;48.398;11.762;2023-06-22T09:30:03;42.00;33.10
12481;DHT22;6305;48.398;11.762;2023-06-22T09:32:31;42.80;32.50
12481;DHT22;6305;48.398;11.762;2023-06-22T09:34:58;43.10;32.40
12481;DHT22;6305;48.398;11.762;2023-06-22T09:37:25;43.70;31.90
12481;DHT22;6305;48.398;11.762;2023-06-22T09:39:52;44.20;31.00
12481;DHT22;6305;48.398;11.762;2023-06-22T09:42:19;44.40;31.20
12481;DHT22;6305;48.398;11.762;2023-06-22T09:44:48;44.70;30.80
12481;DHT22;6305;48.398;11.762;2023-06-22T09:47:15;45.10;30.70
12481;DHT22;6305;48.398;11.762;2023-06-22T09:49:41;45.40;29.90
12481;DHT22;6305;48.398;11.762;2023-06-22T09:52:08;45.20;29.80
12481;DHT22;6305;48.398;11.762;2023-06-22T09:54:37;44.90;29.70
12481;DHT22;6305;48.398;11.762;2023-06-22T09:57:04;44.80;29.90
12481;DHT22;6305;48.398;11.762;2023-06-22T09:59:31;44.00;30.70
12481;DHT22;6305;48.398;11.762;2023-06-22T10:01:59;43.90;30.50
12481;DHT22;6305;48.398;11.762;2023-06-22T10:04:26;43.40;30.60
12481;DHT22;6305;48.398;11.762;2023-06-22T10:06:53;43.10;31.20
12481;DHT22;6305;48.398;11.762;2023-06-22T10:09:20;43.10;31.20
12481;DHT22;6305;48.398;11.762;2023-06-22T10:11:47;43.30;31.00
12481;DHT22;6305;48.398;11.762;2023-06-22T10:14:14;43.50;31.00
12481;DHT22;6305;48.398;11.762;2023-06-22T10:16:41;43.90;30.60
12481;DHT22;6305;48.398;11.762;2023-06-22T10:19:09;44.00;30.30
12481;DHT22;6305;48.398;11.762;2023-06-22T10:21:36;44.00;30.30
12481;DHT22;6305;48.398;11.762;2023-06-22T10:24:03;44.60;30.10
12481;DHT22;6305;48.398;11.762;2023-06-22T10:26:32;45.30;29.80
12481;DHT22;6305;48.398;11.762;2023-06-22T10:28:59;45.50;29.30
12481;DHT22;6305;48.398;11.762;2023-06-22T10:31:26;46.00;29.40
12481;DHT22;6305;48.398;11.762;2023-06-22T10:33:54;46.20;29.00
12481;DHT22;6305;48.398;11.762;2023-06-22T10:36:22;46.40;28.90
12481;DHT22;6305;48.398;11.762;2023-06-22T10:38:50;46.00;28.30
12481;DHT22;6305;48.398;11.762;2023-06-22T10:41:19;46.00;28.80
12481;DHT22;6305;48.398;11.762;2023-06-22T10:43:46;46.20;28.40
12481;DHT22;6305;48.398;11.762;2023-06-22T10:46:13;45.80;28.30
12481;DHT22;6305;48.398;11.762;2023-06-22T10:48:40;45.50;28.50
12481;DHT22;6305;48.398;11.762;2023-06-22T10:51:07;45.70;28.50
12481;DHT22;6305;48.398;11.762;2023-06-22T10:53:35;46.50;28.20
12481;DHT22;6305;48.398;11.762;2023-06-22T10:56:02;46.80;28.10
12481;DHT22;6305;48.398;11.762;2023-06-22T10:58:30;46.70;27.40
12481;DHT22;6305;48.398;11.762;2023-06-22T11:00:57;46.50;27.70
12481;DHT22;6305;48.398;11.762;2023-06-22T11:03:24;46.90;27.90
12481;DHT22;6305;48.398;11.762;2023-06-22T11:05:51;47.30;27.70
12481;DHT22;6305;48.398;11.762;2023-06-22T11:08:18;47.50;27.40
12481;DHT22;6305;48.398;11.762;2023-06-22T11:10:47;47.40;27.30
12481;DHT22;6305;48.398;11.762;2023-06-22T11:13:14;48.00;27.40
12481;DHT22;6305;48.398;11.762;2023-06-22T11:15:41;48.20;27.20
12481;DHT22;6305;48.398;11.762;2023-06-22T11:18:07;48.00;27.10
12481;DHT22;6305;48.398;11.762;2023-06-22T11:20:34;48.70;27.40
12481;DHT22;6305;48.398;11.762;2023-06-22T11:23:04;49.10;26.10
12481;DHT22;6305;48.398;11.762;2023-06-22T11:25:32;49.00;26.40
12481;DHT22;6305;48.398;11.762;2023-06-22T11:28:02;48.70;25.90
12481;DHT22;6305;48.398;11.762;2023-06-22T11:30:29;47.10;26.70
12481;DHT22;6305;48.398;11.762;2023-06-22T11:32:56;46.10;27.40
12481;DHT22;6305;48.398;11.762;2023-06-22T11:35:25;45.50;28.10
12481;DHT22;6305;48.398;11.762;2023-06-22T11:37:52;46.10;28.00
12481;DHT22;6305;48.398;11.762;2023-06-22T11:40:19;46.40;27.70
12481;DHT22;6305;48.398;11.762;2023-06-22T11:42:45;46.50;27.90
12481;DHT22;6305;48.398;11.762;2023-06-22T11:45:14;46.80;28.10
12481;DHT22;6305;48.398;11.762;2023-06-22T11:47:42;46.30;28.00
12481;DHT22;6305;48.398;11.762;2023-06-22T11:50:09;45.90;28.50
12481;DHT22;6305;48.398;11.762;2023-06-22T11:52:36;45.30;28.70
12481;DHT22;6305;48.398;11.762;2023-06-22T11:55:04;45.40;29.50
12481;DHT22;6305;48.398;11.762;2023-06-22T11:57:33;45.80;29.20
12481;DHT22;6305;48.398;11.762;2023-06-22T12:00:01;46.00;28.90
12481;DHT22;6305;48.398;11.762;2023-06-22T12:02:34;46.70;29.00
12481;DHT22;6305;48.398;11.762;2023-06-22T12:05:01;47.30;28.20
12481;DHT22;6305;48.398;11.762;2023-06-22T12:07:30;47.30;27.80
12481;DHT22;6305;48.398;11.762;2023-06-22T12:09:57;47.30;27.70
12481;DHT22;6305;48.398;11.762;2023-06-22T12:12:24;47.60;26.90
12481;DHT22;6305;48.398;11.762;2023-06-22T12:14:51;47.70;27.10
12481;DHT22;6305;48.398;11.762;2023-06-22T12:17:18;47.80;27.40
12481;DHT22;6305;48.398;11.762;2023-06-22T12:19:47;48.30;27.30
12481;DHT22;6305;48.398;11.762;2023-06-22T12:22:15;48.10;26.20
12481;DHT22;6305;48.398;11.762;2023-06-22T12:24:42;47.10;27.00
12481;DHT22;6305;48.398;11.762;2023-06-22T12:27:09;46.40;27.30
12481;DHT22;6305;48.398;11.762;2023-06-22T12:29:36;46.30;28.00
12481;DHT22;6305;48.398;11.762;2023-06-22T12:32:04;47.10;27.90
12481;DHT22;6305;48.398;11.762;2023-06-22T12:34:31;47.60;27.10
12481;DHT22;6305;48.398;11.762;2023-06-22T12:37:00;46.30;26.90
12481;DHT22;6305;48.398;11.762;2023-06-22T12:39:27;45.20;28.30
12481;DHT22;6305;48.398;11.762;2023-06-22T12:41:54;44.10;29.00
12481;DHT22;6305;48.398;11.762;2023-06-22T12:44:21;43.10;30.50
12481;DHT22;6305;48.398;11.762;2023-06-22T12:46:48;42.70;31.40
12481;DHT22;6305;48.398;11.762;2023-06-22T12:49:15;43.10;32.20
12481;DHT22;6305;48.398;11.762;2023-06-22T12:51:43;44.40;31.20
12481;DHT22;6305;48.398;11.762;2023-06-22T12:54:12;45.30;29.80
12481;DHT22;6305;48.398;11.762;2023-06-22T12:56:39;46.00;29.70
12481;DHT22;6305;48.398;11.762;2023-06-22T12:59:06;46.50;28.50
12481;DHT22;6305;48.398;11.762;2023-06-22T13:01:33;46.70;28.10
12481;DHT22;6305;48.398;11.762;2023-06-22T13:04:00;46.90;28.40
12481;DHT22;6305;48.398;11.762;2023-06-22T13:06:27;47.10;28.30
12481;DHT22;6305;48.398;11.762;2023-06-22T13:08:54;47.10;27.50
12481;DHT22;6305;48.398;11.762;2023-06-22T13:11:22;46.50;27.60
12481;DHT22;6305;48.398;11.762;2023-06-22T13:13:49;45.40;27.50
12481;DHT22;6305;48.398;11.762;2023-06-22T13:16:16;44.70;28.80
12481;DHT22;6305;48.398;11.762;2023-06-22T13:18:43;43.90;29.60
12481;DHT22;6305;48.398;11.762;2023-06-22T13:21:10;43.10;30.20
12481;DHT22;6305;48.398;11.762;2023-06-22T13:23:37;42.80;31.30
12481;DHT22;6305;48.398;11.762;2023-06-22T13:26:04;42.60;32.10
12481;DHT22;6305;48.398;11.762;2023-06-22T13:28:32;42.40;32.50
12481;DHT22;6305;48.398;11.762;2023-06-22T13:31:00;42.30;32.90
12481;DHT22;6305;48.398;11.762;2023-06-22T13:33:27;42.10;33.20
12481;DHT22;6305;48.398;11.762;2023-06-22T13:35:54;42.00;32.70
12481;DHT22;6305;48.398;11.762;2023-06-22T13:38:21;41.90;32.70
12481;DHT22;6305;48.398;11.762;2023-06-22T13:40:48;41.90;32.30
12481;DHT22;6305;48.398;11.762;2023-06-22T13:43:16;41.60;32.50
12481;DHT22;6305;48.398;11.762;2023-06-22T13:45:45;41.20;33.30
12481;DHT22;6305;48.398;11.762;2023-06-22T13:48:12;41.50;33.50
12481;DHT22;6305;48.398;11.762;2023-06-22T13:50:38;41.80;34.00
12481;DHT22;6305;48.398;11.762;2023-06-22T13:53:05;42.00;33.70
12481;DHT22;6305;48.398;11.762;2023-06-22T13:55:32;42.50;33.00
12481;DHT22;6305;48.398;11.762;2023-06-22T13:57:59;43.20;33.10
12481;DHT22;6305;48.398;11.762;2023-06-22T14:00:26;43.70;31.70
12481;DHT22;6305;48.398;11.762;2023-06-22T14:02:55;43.90;30.60
12481;DHT22;6305;48.398;11.762;2023-06-22T14:05:22;43.70;30.00
12481;DHT22;6305;48.398;11.762;2023-06-22T14:07:49;43.00;30.20
12481;DHT22;6305;48.398;11.762;2023-06-22T14:10:16;42.80;31.20
12481;DHT22;6305;48.398;11.762;2023-06-22T14:12:44;43.60;32.10
12481;DHT22;6305;48.398;11.762;2023-06-22T14:15:11;44.80;31.20
12481;DHT22;6305;48.398;11.762;2023-06-22T14:17:38;45.90;29.40
12481;DHT22;6305;48.398;11.762;2023-06-22T14:20:08;46.50;28.80
12481;DHT22;6305;48.398;11.762;2023-06-22T14:22:35;47.00;28.00
12481;DHT22;6305;48.398;11.762;2023-06-22T14:25:02;46.90;27.70
12481;DHT22;6305;48.398;11.762;2023-06-22T14:27:30;46.50;27.70
12481;DHT22;6305;48.398;11.762;2023-06-22T14:29:57;46.30;27.90
12481;DHT22;6305;48.398;11.762;2023-06-22T14:32:24;46.20;28.20
12481;DHT22;6305;48.398;11.762;2023-06-22T14:34:51;45.80;27.70
12481;DHT22;6305;48.398;11.762;2023-06-22T14:37:20;45.80;27.50
12481;DHT22;6305;48.398;11.762;2023-06-22T14:39:47;45.30;27.80
12481;DHT22;6305;48.398;11.762;2023-06-22T14:42:14;45.10;29.10
12481;DHT22;6305;48.398;11.762;2023-06-22T14:44:41;44.90;28.40
12481;DHT22;6305;48.398;11.762;2023-06-22T14:47:09;44.50;28.30
12481;DHT22;6305;48.398;11.762;2023-06-22T14:49:36;43.90;29.20
12481;DHT22;6305;48.398;11.762;2023-06-22T14:52:03;43.90;29.80
12481;DHT22;6305;48.398;11.762;2023-06-22T14:54:33;44.00;29.70
12481;DHT22;6305;48.398;11.762;2023-06-22T14:57:00;43.90;29.60
12481;DHT22;6305;48.398;11.762;2023-06-22T14:59:27;43.80;29.70
12481;DHT22;6305;48.398;11.762;2023-06-22T15:01:54;43.80;29.90
12481;DHT22;6305;48.398;11.762;2023-06-22T15:04:21;44.10;29.20
12481;DHT22;6305;48.398;11.762;2023-06-22T15:06:48;44.20;29.30
12481;DHT22;6305;48.398;11.762;2023-06-22T15:09:15;44.00;29.20
12481;DHT22;6305;48.398;11.762;2023-06-22T15:11:44;43.80;29.70
12481;DHT22;6305;48.398;11.762;2023-06-22T15:14:13;43.40;29.90
12481;DHT22;6305;48.398;11.762;2023-06-22T15:16:40;43.40;30.50
12481;DHT22;6305;48.398;11.762;2023-06-22T15:19:07;43.20;30.20
12481;DHT22;6305;48.398;11.762;2023-06-22T15:21:35;43.20;30.40
12481;DHT22;6305;48.398;11.762;2023-06-22T15:24:02;43.00;30.60
12481;DHT22;6305;48.398;11.762;2023-06-22T15:26:29;42.90;30.30
12481;DHT22;6305;48.398;11.762;2023-06-22T15:28:58;42.80;30.30
12481;DHT22;6305;48.398;11.762;2023-06-22T15:31:26;43.10;30.40
12481;DHT22;6305;48.398;11.762;2023-06-22T15:33:53;43.00;30.50